Time;durP1;ratioP1;P1;durP2;ratioP2;P2;SDS_P1;SDS_P2;PMS_P1;PMS_P2;Temp;Humidity;BMP_temperature;BMP_pressure;BME280_temperature;BME280_humidity;BME280_pressure;Samples;Min_cycle;Max_cycle;Signal;HPM_P1;HPM_P2
2024/01/01 00:01:57;;;;;;;16.80;13.90;;;;;;;;;;81068;270;3030918;-33
2024/01/01 00:04:36;;;;;;;16.40;13.60;;;;;;;;;;81034;275;3032504;-33
2024/01/01 00:07:13;;;;;;;16.60;13.60;;;;;;;;;;81033;271;3028607;-32
2024/01/01 00:09:52;;;;;;;17.30;14.60;;;;;;;;;;81037;278;3027482;-32
2024/01/01 00:12:36;;;;;;;16.90;14.50;;;;;;;;;;81069;275;3030663;-33
2024/01/01 00:15:18;;;;;;;17.00;14.80;;;;;;;;;;81056;279;3031297;-33
2024/01/01 00:17:59;;;;;;;16.60;14.50;;;;;;;;;;81076;283;3028379;-33
2024/01/01 00:20:37;;;;;;;17.20;14.70;;;;;;;;;;81026;271;3027957;-32
2024/01/01 00:23:16;;;;;;;18.10;15.00;;;;;;;;;;81047;283;3030421;-32
2024/01/01 00:25:55;;;;;;;16.90;14.70;;;;;;;;;;81079;283;3032248;-32
2024/01/01 00:28:33;;;;;;;18.20;15.10;;;;;;;;;;81021;283;3030842;-32
2024/01/01 00:31:09;;;;;;;16.60;14.60;;;;;;;;;;81053;278;3033744;-32
2024/01/01 00:33:46;;;;;;;18.10;15.30;;;;;;;;;;81039;279;3031392;-32
2024/01/01 00:36:23;;;;;;;17.10;14.50;;;;;;;;;;81038;283;3031511;-32
2024/01/01 00:39:00;;;;;;;17.30;14.80;;;;;;;;;;81031;271;3028400;-32
2024/01/01 00:41:39;;;;;;;17.10;14.90;;;;;;;;;;81067;283;3027967;-32
2024/01/01 00:44:17;;;;;;;17.30;15.50;;;;;;;;;;81060;275;3031459;-32
2024/01/01 00:46:57;;;;;;;17.10;15.30;;;;;;;;;;81070;279;3031463;-32
2024/01/01 00:49:37;;;;;;;17.80;15.20;;;;;;;;;;81007;275;3028586;-32
2024/01/01 00:52:16;;;;;;;18.10;15.80;;;;;;;;;;81061;283;3028969;-32
2024/01/01 00:54:53;;;;;;;18.40;15.80;;;;;;;;;;81070;279;3030718;-32
2024/01/01 00:57:34;;;;;;;19.30;16.60;;;;;;;;;;81111;283;3032102;-32
2024/01/01 01:00:14;;;;;;;18.40;15.40;;;;;;;;;;81063;271;3028852;-32
2024/01/01 01:02:53;;;;;;;17.20;15.20;;;;;;;;;;81646;275;3027419;-32
2024/01/01 01:05:30;;;;;;;17.40;15.40;;;;;;;;;;81039;275;3031286;-32
2024/01/01 01:08:11;;;;;;;18.70;15.90;;;;;;;;;;81074;271;3031613;-32
2024/01/01 01:10:50;;;;;;;17.70;15.40;;;;;;;;;;81012;271;3028705;-32
2024/01/01 01:13:28;;;;;;;17.90;16.00;;;;;;;;;;81098;283;3029175;-32
2024/01/01 01:16:10;;;;;;;18.00;15.50;;;;;;;;;;81048;275;3031413;-32
2024/01/01 01:18:46;;;;;;;16.80;14.70;;;;;;;;;;81006;278;3032277;-32
2024/01/01 01:21:23;;;;;;;17.60;15.30;;;;;;;;;;81012;275;3027983;-32
2024/01/01 01:23:59;;;;;;;16.80;15.00;;;;;;;;;;81060;283;3028111;-32
2024/01/01 01:26:35;;;;;;;18.00;15.30;;;;;;;;;;81059;279;3031999;-32
2024/01/01 01:29:14;;;;;;;17.80;15.10;;;;;;;;;;81061;275;3033445;-33
2024/01/01 01:31:51;;;;;;;16.50;14.50;;;;;;;;;;81021;275;3027926;-32
2024/01/01 01:34:29;;;;;;;17.90;14.90;;;;;;;;;;81054;275;3027495;-32
2024/01/01 01:37:07;;;;;;;18.20;15.40;;;;;;;;;;80701;283;3030681;-32
2024/01/01 01:39:43;;;;;;;17.10;14.90;;;;;;;;;;81048;279;3031833;-34
2024/01/01 01:42:19;;;;;;;16.70;14.70;;;;;;;;;;81039;275;3028520;-34
2024/01/01 01:44:58;;;;;;;16.80;14.60;;;;;;;;;;81086;278;3027882;-34
2024/01/01 01:47:35;;;;;;;17.00;14.30;;;;;;;;;;81064;275;3031353;-34
2024/01/01 01:50:13;;;;;;;16.50;14.00;;;;;;;;;;81834;270;3031215;-34
2024/01/01 01:52:51;;;;;;;16.40;14.30;;;;;;;;;;81372;279;3035174;-34
2024/01/01 01:55:28;;;;;;;15.70;13.90;;;;;;;;;;81093;271;3027150;-34
2024/01/01 01:58:07;;;;;;;15.90;13.60;;;;;;;;;;81292;275;3031047;-34
2024/01/01 02:00:44;;;;;;;15.70;13.90;;;;;;;;;;81055;279;3032651;-34
2024/01/01 02:03:22;;;;;;;16.20;14.10;;;;;;;;;;81116;283;3028426;-34
2024/01/01 02:05:59;;;;;;;15.90;13.40;;;;;;;;;;81063;275;3028368;-34
2024/01/01 02:08:38;;;;;;;16.10;13.90;;;;;;;;;;81038;275;3031460;-34
2024/01/01 02:11:15;;;;;;;15.90;13.90;;;;;;;;;;81052;271;3031467;-34
2024/01/01 02:13:53;;;;;;;15.80;14.00;;;;;;;;;;82388;275;3028235;-34
2024/01/01 02:16:32;;;;;;;17.20;14.10;;;;;;;;;;81613;275;3027741;-34
2024/01/01 02:19:19;;;;;;;16.00;13.50;;;;;;;;;;81040;283;3031064;-34
2024/01/01 02:21:58;;;;;;;16.50;14.00;;;;;;;;;;81550;275;3031903;-34
2024/01/01 02:24:36;;;;;;;15.90;13.70;;;;;;;;;;81067;279;3028094;-34
2024/01/01 02:27:16;;;;;;;15.40;13.80;;;;;;;;;;81123;283;3027345;-34
2024/01/01 02:29:56;;;;;;;15.60;13.40;;;;;;;;;;81135;275;3031130;-34
2024/01/01 02:32:35;;;;;;;15.10;13.10;;;;;;;;;;81042;275;3032012;-34
2024/01/01 02:35:13;;;;;;;15.90;13.80;;;;;;;;;;81074;283;3028800;-34
2024/01/01 02:37:50;;;;;;;16.00;13.50;;;;;;;;;;81046;283;3027404;-34
2024/01/01 02:40:26;;;;;;;16.00;13.20;;;;;;;;;;81069;283;3031689;-34
2024/01/01 02:43:02;;;;;;;15.60;13.20;;;;;;;;;;81023;275;3031906;-34
2024/01/01 02:45:40;;;;;;;17.30;13.20;;;;;;;;;;81088;275;3028122;-35
2024/01/01 02:48:16;;;;;;;15.50;13.10;;;;;;;;;;81065;279;3027661;-35
2024/01/01 02:50:53;;;;;;;15.20;13.20;;;;;;;;;;81271;275;3030404;-34
2024/01/01 02:53:33;;;;;;;17.70;13.40;;;;;;;;;;81041;271;3031810;-34
2024/01/01 02:56:17;;;;;;;16.20;13.20;;;;;;;;;;81091;275;3028110;-34
2024/01/01 02:58:55;;;;;;;15.10;13.30;;;;;;;;;;82517;278;3027389;-34
2024/01/01 03:01:31;;;;;;;15.50;12.70;;;;;;;;;;82184;275;3031366;-34
2024/01/01 03:04:11;;;;;;;14.80;12.90;;;;;;;;;;81048;283;3031283;-34
2024/01/01 03:06:48;;;;;;;15.10;12.70;;;;;;;;;;81043;283;3027863;-34
2024/01/01 03:09:28;;;;;;;14.40;12.60;;;;;;;;;;81045;275;3028276;-34
2024/01/01 03:12:07;;;;;;;15.00;12.80;;;;;;;;;;81046;275;3030649;-34
2024/01/01 03:14:44;;;;;;;15.30;13.00;;;;;;;;;;81551;279;3037907;-34
2024/01/01 03:17:22;;;;;;;15.00;13.00;;;;;;;;;;81057;283;3027909;-34
2024/01/01 03:20:01;;;;;;;15.90;13.30;;;;;;;;;;81081;275;3027649;-34
2024/01/01 03:22:38;;;;;;;14.90;12.90;;;;;;;;;;81045;278;3031641;-34
2024/01/01 03:25:15;;;;;;;14.50;12.50;;;;;;;;;;81075;275;3031684;-34
2024/01/01 03:27:55;;;;;;;14.50;12.80;;;;;;;;;;81065;275;3028267;-34
2024/01/01 03:30:32;;;;;;;15.60;13.10;;;;;;;;;;81105;283;3027649;-34
2024/01/01 03:33:09;;;;;;;15.50;13.00;;;;;;;;;;81008;283;3030947;-34
2024/01/01 03:35:46;;;;;;;15.00;13.40;;;;;;;;;;81044;275;3032352;-34
2024/01/01 03:38:25;;;;;;;15.70;13.00;;;;;;;;;;81086;275;3028256;-34
2024/01/01 03:41:03;;;;;;;14.30;12.60;;;;;;;;;;81031;283;3027391;-34
2024/01/01 03:43:41;;;;;;;14.80;13.20;;;;;;;;;;81041;275;3031314;-34
2024/01/01 03:46:18;;;;;;;15.60;13.20;;;;;;;;;;81072;283;3032013;-34
2024/01/01 03:48:58;;;;;;;14.70;13.20;;;;;;;;;;81081;283;3028201;-34
2024/01/01 03:51:39;;;;;;;14.60;12.80;;;;;;;;;;81049;275;3027636;-34
2024/01/01 03:54:17;;;;;;;14.40;12.90;;;;;;;;;;81022;270;3031543;-34
2024/01/01 03:56:55;;;;;;;15.70;13.30;;;;;;;;;;81068;278;3031685;-34
2024/01/01 03:59:35;;;;;;;15.40;12.90;;;;;;;;;;81060;275;3029102;-34
2024/01/01 04:02:12;;;;;;;14.60;12.20;;;;;;;;;;81068;270;3027798;-34
2024/01/01 04:04:50;;;;;;;15.10;12.50;;;;;;;;;;81027;283;3030883;-34
2024/01/01 04:07:31;;;;;;;15.70;12.60;;;;;;;;;;81080;275;3031363;-34
2024/01/01 04:10:10;;;;;;;15.00;12.40;;;;;;;;;;82496;278;3027808;-34
2024/01/01 04:12:46;;;;;;;14.90;12.20;;;;;;;;;;81082;275;3027325;-34
2024/01/01 04:15:23;;;;;;;14.80;12.20;;;;;;;;;;81003;271;3029549;-34
2024/01/01 04:18:03;;;;;;;16.80;13.10;;;;;;;;;;81064;283;3031327;-34
2024/01/01 04:20:42;;;;;;;14.80;12.80;;;;;;;;;;81045;283;3028195;-34
2024/01/01 04:23:19;;;;;;;15.10;12.40;;;;;;;;;;81062;283;3028962;-34
2024/01/01 04:25:56;;;;;;;14.80;12.20;;;;;;;;;;81061;283;3030871;-34
2024/01/01 04:28:37;;;;;;;15.80;12.00;;;;;;;;;;81055;271;3032012;-34
2024/01/01 04:31:17;;;;;;;14.20;12.30;;;;;;;;;;81081;279;3028359;-34
2024/01/01 04:33:54;;;;;;;15.80;12.30;;;;;;;;;;81031;282;3027850;-34
2024/01/01 04:36:33;;;;;;;15.10;12.50;;;;;;;;;;81099;270;3037316;-34
2024/01/01 04:39:12;;;;;;;15.70;12.70;;;;;;;;;;81084;283;3032047;-34
2024/01/01 04:41:50;;;;;;;14.30;11.50;;;;;;;;;;81082;283;3028733;-34
2024/01/01 04:44:27;;;;;;;13.80;11.60;;;;;;;;;;81010;283;3027480;-34
2024/01/01 04:47:05;;;;;;;13.80;12.30;;;;;;;;;;81052;275;3031366;-34
2024/01/01 04:49:43;;;;;;;14.30;12.00;;;;;;;;;;81972;283;3031609;-34
2024/01/01 04:52:21;;;;;;;14.60;11.70;;;;;;;;;;81100;283;3027875;-34
2024/01/01 04:55:00;;;;;;;14.30;12.20;;;;;;;;;;81029;275;3027100;-34
2024/01/01 04:57:36;;;;;;;13.40;11.80;;;;;;;;;;82145;270;3031209;-34
2024/01/01 05:00:17;;;;;;;14.30;11.70;;;;;;;;;;81055;278;3031966;-34
2024/01/01 05:02:55;;;;;;;13.60;12.20;;;;;;;;;;81203;283;3028367;-34
2024/01/01 05:05:32;;;;;;;14.10;11.60;;;;;;;;;;81121;283;3027979;-34
2024/01/01 05:08:09;;;;;;;13.50;12.10;;;;;;;;;;81058;279;3031231;-34
2024/01/01 05:10:48;;;;;;;14.60;12.00;;;;;;;;;;81086;271;3031585;-34
2024/01/01 05:13:30;;;;;;;14.00;11.80;;;;;;;;;;81072;271;3028337;-34
2024/01/01 05:16:12;;;;;;;13.30;11.50;;;;;;;;;;81045;275;3027331;-34
2024/01/01 05:18:48;;;;;;;13.20;11.60;;;;;;;;;;81126;279;3031076;-34
2024/01/01 05:21:27;;;;;;;14.50;11.50;;;;;;;;;;81110;283;3031406;-34
2024/01/01 05:24:07;;;;;;;14.10;12.10;;;;;;;;;;81054;271;3028364;-34
2024/01/01 05:26:45;;;;;;;13.10;11.70;;;;;;;;;;81193;271;3028403;-34
2024/01/01 05:29:23;;;;;;;13.60;11.60;;;;;;;;;;81101;275;3031403;-34
2024/01/01 05:31:59;;;;;;;13.60;11.80;;;;;;;;;;81091;279;3031954;-34
2024/01/01 05:34:38;;;;;;;13.80;11.40;;;;;;;;;;81174;279;3027902;-34
2024/01/01 05:37:14;;;;;;;13.50;11.90;;;;;;;;;;81191;282;3027384;-34
2024/01/01 05:39:52;;;;;;;13.20;11.60;;;;;;;;;;81077;283;3032416;-34
2024/01/01 05:42:32;;;;;;;13.30;11.30;;;;;;;;;;81088;283;3031461;-34
2024/01/01 05:45:10;;;;;;;13.30;11.80;;;;;;;;;;81050;283;3027994;-34
2024/01/01 05:47:46;;;;;;;13.20;11.80;;;;;;;;;;81131;279;3027465;-34
2024/01/01 05:50:26;;;;;;;13.10;11.30;;;;;;;;;;81078;275;3031799;-34
2024/01/01 05:53:06;;;;;;;13.00;11.60;;;;;;;;;;81079;275;3031322;-34
2024/01/01 05:55:46;;;;;;;13.10;11.00;;;;;;;;;;81067;283;3028292;-34
2024/01/01 05:58:26;;;;;;;12.90;11.20;;;;;;;;;;81085;271;3033549;-34
2024/01/01 06:01:03;;;;;;;13.30;11.60;;;;;;;;;;81072;275;3031123;-34
2024/01/01 06:03:40;;;;;;;12.80;11.40;;;;;;;;;;81035;285;3032882;-34
2024/01/01 06:06:18;;;;;;;12.10;10.70;;;;;;;;;;81069;271;3028219;-34
2024/01/01 06:08:54;;;;;;;13.30;11.30;;;;;;;;;;81045;283;3027937;-34
2024/01/01 06:11:30;;;;;;;13.10;11.00;;;;;;;;;;81070;275;3031258;-34
2024/01/01 06:14:07;;;;;;;12.80;11.00;;;;;;;;;;81056;283;3031255;-34
2024/01/01 06:16:47;;;;;;;13.10;11.00;;;;;;;;;;81035;275;3028488;-34
2024/01/01 06:19:26;;;;;;;12.80;11.00;;;;;;;;;;81041;283;3027352;-35
2024/01/01 06:22:06;;;;;;;12.50;11.00;;;;;;;;;;81056;270;3030506;-35
2024/01/01 06:24:43;;;;;;;13.70;11.10;;;;;;;;;;81043;283;3031612;-34
2024/01/01 06:27:22;;;;;;;12.80;10.70;;;;;;;;;;81035;275;3028637;-34
2024/01/01 06:29:59;;;;;;;12.80;10.50;;;;;;;;;;81065;283;3027611;-34
2024/01/01 06:32:35;;;;;;;12.10;10.60;;;;;;;;;;81864;279;3031002;-34
2024/01/01 06:35:12;;;;;;;13.70;11.90;;;;;;;;;;81029;282;3031889;-34
2024/01/01 06:37:49;;;;;;;14.00;10.90;;;;;;;;;;82436;275;3027803;-34
2024/01/01 06:40:25;;;;;;;13.30;11.20;;;;;;;;;;81195;275;3027303;-34
2024/01/01 06:43:05;;;;;;;12.80;10.60;;;;;;;;;;81004;283;3031005;-35
2024/01/01 06:45:43;;;;;;;12.30;10.80;;;;;;;;;;81045;278;3031836;-35
2024/01/01 06:48:21;;;;;;;12.40;10.80;;;;;;;;;;81025;275;3028045;-34
2024/01/01 06:50:58;;;;;;;12.30;10.80;;;;;;;;;;81063;279;3028148;-34
2024/01/01 06:53:38;;;;;;;12.00;10.50;;;;;;;;;;81080;283;3030670;-35
2024/01/01 06:56:15;;;;;;;13.00;10.60;;;;;;;;;;81032;279;3031632;-35
2024/01/01 06:58:53;;;;;;;11.10;9.80;;;;;;;;;;81036;279;3028148;-35
2024/01/01 07:01:34;;;;;;;11.60;10.20;;;;;;;;;;81068;275;3027290;-35
2024/01/01 07:04:14;;;;;;;12.20;10.50;;;;;;;;;;81036;283;3030597;-35
2024/01/01 07:06:51;;;;;;;13.60;10.70;;;;;;;;;;81089;275;3031868;-35
2024/01/01 07:09:31;;;;;;;12.20;10.40;;;;;;;;;;81063;275;3028924;-35
2024/01/01 07:12:25;;;;;;;12.20;10.30;;;;;;;;;;81049;275;3027584;-35
2024/01/01 07:15:02;;;;;;;12.60;10.10;;;;;;;;;;81601;275;3030720;-35
2024/01/01 07:17:38;;;;;;;11.40;10.20;;;;;;;;;;81016;271;3032032;-35
2024/01/01 07:20:16;;;;;;;12.10;10.40;;;;;;;;;;81069;275;3027884;-35
2024/01/01 07:22:55;;;;;;;12.10;10.50;;;;;;;;;;81437;271;3027719;-35
2024/01/01 07:25:33;;;;;;;12.60;10.80;;;;;;;;;;81073;278;3030941;-35
2024/01/01 07:28:13;;;;;;;12.80;10.60;;;;;;;;;;81039;275;3033134;-34
2024/01/01 07:30:51;;;;;;;12.60;11.00;;;;;;;;;;81095;275;3028121;-34
2024/01/01 07:33:28;;;;;;;12.60;11.10;;;;;;;;;;81085;275;3028390;-34
2024/01/01 07:36:06;;;;;;;12.20;10.90;;;;;;;;;;81043;283;3030694;-34
2024/01/01 07:38:42;;;;;;;13.00;10.50;;;;;;;;;;81257;270;3031281;-34
2024/01/01 07:41:23;;;;;;;13.30;10.70;;;;;;;;;;81068;275;3028826;-34
2024/01/01 07:44:00;;;;;;;12.80;10.80;;;;;;;;;;81096;271;3027611;-34
2024/01/01 07:46:37;;;;;;;13.20;10.90;;;;;;;;;;81062;275;3030569;-34
2024/01/01 07:49:16;;;;;;;12.40;10.30;;;;;;;;;;81059;275;3031954;-34
2024/01/01 07:51:52;;;;;;;12.30;10.70;;;;;;;;;;81041;275;3028558;-34
2024/01/01 07:54:31;;;;;;;12.80;10.40;;;;;;;;;;81084;283;3027220;-34
2024/01/01 07:57:13;;;;;;;12.20;10.10;;;;;;;;;;81046;283;3030764;-34
2024/01/01 07:59:49;;;;;;;11.60;10.30;;;;;;;;;;81034;275;3031760;-34
2024/01/01 08:02:29;;;;;;;12.60;10.10;;;;;;;;;;81049;275;3028248;-34
2024/01/01 08:05:06;;;;;;;12.60;10.50;;;;;;;;;;81065;275;3027835;-34
2024/01/01 08:07:47;;;;;;;12.40;10.30;;;;;;;;;;81058;275;3031501;-34
2024/01/01 08:10:28;;;;;;;11.40;9.80;;;;;;;;;;82245;283;3031561;-34
2024/01/01 08:13:09;;;;;;;12.00;10.50;;;;;;;;;;81055;283;3028302;-34
2024/01/01 08:15:47;;;;;;;11.10;9.70;;;;;;;;;;81090;279;3028036;-34
2024/01/01 08:18:24;;;;;;;11.70;9.90;;;;;;;;;;81057;275;3032143;-34
2024/01/01 08:21:03;;;;;;;11.50;9.90;;;;;;;;;;80977;283;3031375;-34
2024/01/01 08:23:40;;;;;;;12.10;9.70;;;;;;;;;;81059;275;3028756;-34
2024/01/01 08:26:18;;;;;;;11.30;9.80;;;;;;;;;;81093;283;3027449;-34
2024/01/01 08:28:55;;;;;;;11.80;10.00;;;;;;;;;;81059;283;3031191;-34
2024/01/01 08:31:33;;;;;;;12.00;9.90;;;;;;;;;;81058;279;3038457;-34
2024/01/01 08:34:12;;;;;;;12.10;10.20;;;;;;;;;;81030;271;3028475;-34
2024/01/01 08:36:50;;;;;;;12.40;9.90;;;;;;;;;;81078;291;3027636;-34
2024/01/01 08:39:27;;;;;;;11.40;9.80;;;;;;;;;;81049;275;3030565;-34
2024/01/01 08:42:10;;;;;;;12.30;9.80;;;;;;;;;;81051;271;3032443;-34
2024/01/01 08:44:52;;;;;;;11.90;9.80;;;;;;;;;;81066;283;3028791;-34
2024/01/01 08:47:34;;;;;;;13.00;10.10;;;;;;;;;;81076;283;3027116;-34
2024/01/01 08:50:16;;;;;;;12.00;9.80;;;;;;;;;;81088;271;3031132;-34
2024/01/01 08:52:52;;;;;;;12.30;10.60;;;;;;;;;;81046;275;3031786;-34
2024/01/01 08:55:31;;;;;;;13.40;10.20;;;;;;;;;;81048;275;3028033;-34
2024/01/01 08:58:10;;;;;;;12.60;10.00;;;;;;;;;;81075;275;3027484;-34
2024/01/01 09:00:47;;;;;;;13.40;10.30;;;;;;;;;;81048;278;3031460;-34
2024/01/01 09:03:23;;;;;;;12.30;9.80;;;;;;;;;;81330;279;3032307;-34
2024/01/01 09:06:02;;;;;;;12.70;10.10;;;;;;;;;;81062;270;3028313;-34
2024/01/01 09:08:40;;;;;;;15.40;11.40;;;;;;;;;;81043;271;3027548;-34
2024/01/01 09:11:18;;;;;;;15.80;11.40;;;;;;;;;;81060;275;3030504;-34
2024/01/01 09:13:55;;;;;;;14.80;11.20;;;;;;;;;;81090;275;3031594;-34
2024/01/01 09:16:40;;;;;;;15.70;12.00;;;;;;;;;;81055;271;3028615;-34
2024/01/01 09:19:19;;;;;;;16.80;12.30;;;;;;;;;;81064;275;3027370;-34
2024/01/01 09:22:02;;;;;;;17.00;13.00;;;;;;;;;;81024;275;3031828;-34
2024/01/01 09:24:41;;;;;;;17.50;13.40;;;;;;;;;;81050;283;3031435;-34
2024/01/01 09:27:19;;;;;;;17.20;13.30;;;;;;;;;;81391;282;3028271;-34
2024/01/01 09:29:58;;;;;;;18.00;13.50;;;;;;;;;;81073;275;3027863;-34
2024/01/01 09:32:36;;;;;;;17.30;13.10;;;;;;;;;;80989;283;3032559;-34
2024/01/01 09:35:12;;;;;;;19.60;14.10;;;;;;;;;;81090;275;3033491;-34
2024/01/01 09:37:52;;;;;;;17.60;13.80;;;;;;;;;;81216;275;3028603;-34
2024/01/01 09:40:33;;;;;;;19.60;14.90;;;;;;;;;;81057;283;3027426;-34
2024/01/01 09:43:09;;;;;;;20.00;15.20;;;;;;;;;;81069;283;3036873;-34
2024/01/01 09:45:49;;;;;;;18.20;14.40;;;;;;;;;;81066;279;3031847;-34
2024/01/01 09:48:26;;;;;;;18.90;14.50;;;;;;;;;;81074;283;3028590;-34
2024/01/01 09:51:06;;;;;;;18.40;15.20;;;;;;;;;;81044;282;3027744;-34
2024/01/01 09:53:46;;;;;;;19.80;14.60;;;;;;;;;;81480;278;3031629;-34
2024/01/01 09:56:25;;;;;;;18.90;14.70;;;;;;;;;;81089;283;3031897;-34
2024/01/01 09:59:04;;;;;;;19.80;15.00;;;;;;;;;;81043;279;3029681;-34
2024/01/01 10:01:44;;;;;;;18.80;15.20;;;;;;;;;;81062;283;3027818;-34
2024/01/01 10:04:24;;;;;;;20.60;15.70;;;;;;;;;;81060;275;3031637;-34
2024/01/01 10:07:02;;;;;;;20.60;14.90;;;;;;;;;;81032;275;3031903;-34
2024/01/01 10:09:49;;;;;;;19.80;15.20;;;;;;;;;;81079;275;3028065;-34
2024/01/01 10:12:29;;;;;;;20.40;15.40;;;;;;;;;;81032;271;3027998;-34
2024/01/01 10:15:07;;;;;;;18.70;15.30;;;;;;;;;;81045;275;3030768;-34
2024/01/01 10:17:44;;;;;;;19.20;15.20;;;;;;;;;;81102;271;3032738;-34
2024/01/01 10:20:22;;;;;;;19.60;15.70;;;;;;;;;;81084;275;3029893;-34
2024/01/01 10:22:58;;;;;;;20.00;15.50;;;;;;;;;;81056;283;3027165;-34
2024/01/01 10:25:34;;;;;;;18.30;15.30;;;;;;;;;;81064;282;3030688;-34
2024/01/01 10:28:10;;;;;;;18.50;15.10;;;;;;;;;;81033;279;3031756;-34
2024/01/01 10:30:48;;;;;;;19.30;15.80;;;;;;;;;;81064;283;3028807;-34
2024/01/01 10:33:25;;;;;;;20.00;16.00;;;;;;;;;;81746;283;3027402;-34
2024/01/01 10:36:06;;;;;;;19.30;15.40;;;;;;;;;;81041;278;3031432;-34
2024/01/01 10:38:44;;;;;;;19.90;15.80;;;;;;;;;;82473;282;3031964;-34
2024/01/01 10:41:20;;;;;;;18.50;15.10;;;;;;;;;;81715;275;3028147;-34
2024/01/01 10:43:59;;;;;;;18.40;15.20;;;;;;;;;;81065;275;3027221;-34
2024/01/01 10:46:39;;;;;;;18.10;15.10;;;;;;;;;;81201;275;3031181;-34
2024/01/01 10:49:24;;;;;;;18.00;15.20;;;;;;;;;;81020;275;3032140;-34
2024/01/01 10:52:24;;;;;;;18.20;15.00;;;;;;;;;;81039;271;3028027;-34
2024/01/01 10:55:29;;;;;;;18.10;14.70;;;;;;;;;;81467;283;3033836;-34
2024/01/01 10:58:29;;;;;;;18.30;14.80;;;;;;;;;;81089;279;3031380;-34
2024/01/01 11:01:12;;;;;;;19.60;15.30;;;;;;;;;;81375;283;3032290;-34
2024/01/01 11:03:50;;;;;;;18.40;15.10;;;;;;;;;;81076;270;3028129;-34
2024/01/01 11:06:32;;;;;;;18.80;14.90;;;;;;;;;;81064;282;3027558;-34
2024/01/01 11:09:33;;;;;;;17.70;14.90;;;;;;;;;;81402;283;3031254;-34
2024/01/01 11:12:10;;;;;;;18.30;14.40;;;;;;;;;;81442;283;3031319;-34
2024/01/01 11:14:50;;;;;;;16.80;14.30;;;;;;;;;;81060;283;3029659;-34
2024/01/01 11:17:28;;;;;;;18.20;14.80;;;;;;;;;;81065;270;3027706;-34
2024/01/01 11:20:06;;;;;;;17.80;14.30;;;;;;;;;;81148;275;3030961;-34
2024/01/01 11:22:45;;;;;;;17.80;14.10;;;;;;;;;;81108;270;3031441;-34
2024/01/01 11:25:34;;;;;;;18.60;14.50;;;;;;;;;;81458;271;3027995;-34
2024/01/01 11:28:39;;;;;;;18.90;14.20;;;;;;;;;;81043;285;3027689;-34
2024/01/01 11:31:20;;;;;;;17.30;14.10;;;;;;;;;;81040;283;3030909;-34
2024/01/01 11:34:05;;;;;;;17.30;13.70;;;;;;;;;;81128;275;3031840;-34
2024/01/01 11:36:58;;;;;;;19.60;13.60;;;;;;;;;;81666;275;3027907;-34
2024/01/01 11:39:36;;;;;;;18.00;14.00;;;;;;;;;;81035;276;3027019;-34
2024/01/01 11:42:21;;;;;;;16.60;13.60;;;;;;;;;;81023;283;3031189;-34
2024/01/01 11:45:10;;;;;;;16.70;14.00;;;;;;;;;;81149;275;3032014;-34
2024/01/01 11:47:47;;;;;;;16.70;13.70;;;;;;;;;;82397;283;3027917;-34
2024/01/01 11:50:33;;;;;;;16.10;13.40;;;;;;;;;;81491;283;3027423;-34
2024/01/01 11:53:10;;;;;;;16.80;13.20;;;;;;;;;;81099;271;3031803;-34
2024/01/01 11:55:51;;;;;;;15.70;13.10;;;;;;;;;;81207;283;3031654;-34
2024/01/01 11:58:29;;;;;;;16.40;13.90;;;;;;;;;;81075;283;3027921;-35
2024/01/01 12:01:07;;;;;;;15.50;12.80;;;;;;;;;;81089;275;3026707;-34
2024/01/01 12:03:46;;;;;;;17.80;13.50;;;;;;;;;;81056;275;3031363;-34
2024/01/01 12:06:22;;;;;;;16.30;13.20;;;;;;;;;;81149;270;3038038;-34
2024/01/01 12:09:08;;;;;;;15.80;13.60;;;;;;;;;;81078;283;3028638;-34
2024/01/01 12:11:46;;;;;;;15.60;13.50;;;;;;;;;;81292;270;3027213;-34
2024/01/01 12:14:29;;;;;;;15.20;12.50;;;;;;;;;;81033;279;3032112;-34
2024/01/01 12:17:10;;;;;;;15.50;12.80;;;;;;;;;;81037;283;3031498;-35
2024/01/01 12:19:50;;;;;;;16.30;13.10;;;;;;;;;;81087;275;3027951;-34
2024/01/01 12:22:27;;;;;;;16.70;12.90;;;;;;;;;;81278;275;3027250;-34
2024/01/01 12:25:07;;;;;;;16.50;12.90;;;;;;;;;;80999;276;3030728;-35
2024/01/01 12:27:43;;;;;;;14.90;12.80;;;;;;;;;;81604;271;3031452;-35
2024/01/01 12:30:32;;;;;;;15.10;11.90;;;;;;;;;;81076;271;3028818;-34
2024/01/01 12:33:17;;;;;;;14.70;12.50;;;;;;;;;;81047;275;3027649;-34
2024/01/01 12:36:04;;;;;;;15.80;12.90;;;;;;;;;;81056;276;3031345;-34
2024/01/01 12:38:42;;;;;;;15.60;12.50;;;;;;;;;;81070;270;3031759;-34
2024/01/01 12:41:20;;;;;;;14.80;12.30;;;;;;;;;;81059;275;3028478;-34
2024/01/01 12:43:59;;;;;;;15.10;12.10;;;;;;;;;;81092;271;3028176;-35
2024/01/01 12:46:35;;;;;;;16.60;12.50;;;;;;;;;;81101;275;3031217;-34
2024/01/01 12:49:14;;;;;;;17.20;13.00;;;;;;;;;;81043;279;3031758;-34
2024/01/01 12:51:54;;;;;;;15.70;12.60;;;;;;;;;;81023;280;3028053;-34
2024/01/01 12:54:33;;;;;;;16.30;12.80;;;;;;;;;;81098;275;3027402;-34
2024/01/01 12:57:14;;;;;;;15.90;12.30;;;;;;;;;;81066;275;3031114;-34
2024/01/01 12:59:51;;;;;;;15.00;12.30;;;;;;;;;;81098;283;3031751;-34
2024/01/01 13:02:30;;;;;;;15.50;12.20;;;;;;;;;;81062;275;3028611;-34
2024/01/01 13:05:09;;;;;;;15.30;12.30;;;;;;;;;;81214;275;3027309;-34
2024/01/01 13:07:49;;;;;;;14.40;12.30;;;;;;;;;;81840;278;3037145;-34
2024/01/01 13:10:26;;;;;;;15.20;11.90;;;;;;;;;;81058;275;3031376;-34
2024/01/01 13:13:04;;;;;;;14.30;11.70;;;;;;;;;;81064;271;3028816;-34
2024/01/01 13:15:43;;;;;;;14.60;11.60;;;;;;;;;;81011;275;3027220;-34
2024/01/01 13:18:21;;;;;;;14.70;11.70;;;;;;;;;;81076;283;3037099;-34
2024/01/01 13:21:03;;;;;;;14.40;11.80;;;;;;;;;;81053;275;3031553;-34
2024/01/01 13:23:41;;;;;;;12.70;11.10;;;;;;;;;;81451;275;3028444;-32
2024/01/01 13:26:18;;;;;;;15.40;11.50;;;;;;;;;;81022;275;3027604;-31
2024/01/01 13:29:02;;;;;;;15.70;11.40;;;;;;;;;;81066;271;3033522;-32
2024/01/01 13:31:40;;;;;;;14.40;11.60;;;;;;;;;;81004;271;3032364;-31
2024/01/01 13:34:18;;;;;;;13.50;10.50;;;;;;;;;;81053;275;3027878;-31
2024/01/01 13:36:57;;;;;;;13.50;10.80;;;;;;;;;;81023;283;3028083;-31
2024/01/01 13:39:36;;;;;;;13.00;10.50;;;;;;;;;;81033;271;3031290;-31
2024/01/01 13:42:12;;;;;;;13.10;10.60;;;;;;;;;;81070;283;3031834;-31
2024/01/01 13:44:50;;;;;;;13.50;10.80;;;;;;;;;;81070;275;3028407;-32
2024/01/01 13:47:30;;;;;;;12.40;10.90;;;;;;;;;;81024;277;3027345;-32
2024/01/01 13:50:08;;;;;;;13.40;10.20;;;;;;;;;;81086;275;3031392;-31
2024/01/01 13:52:48;;;;;;;12.20;9.90;;;;;;;;;;81070;275;3031376;-31
2024/01/01 13:55:25;;;;;;;12.70;10.20;;;;;;;;;;81053;279;3028939;-31
2024/01/01 13:58:05;;;;;;;12.50;10.80;;;;;;;;;;81037;275;3028671;-31
2024/01/01 14:00:42;;;;;;;12.40;10.40;;;;;;;;;;82409;283;3030564;-31
2024/01/01 14:03:20;;;;;;;12.80;10.90;;;;;;;;;;81793;270;3031543;-31
2024/01/01 14:05:58;;;;;;;12.80;10.20;;;;;;;;;;81077;275;3028124;-31
2024/01/01 14:08:36;;;;;;;14.40;10.50;;;;;;;;;;81048;283;3027636;-31
2024/01/01 14:11:15;;;;;;;14.50;10.80;;;;;;;;;;81064;275;3031657;-32
2024/01/01 14:13:51;;;;;;;12.50;10.30;;;;;;;;;;81059;275;3031954;-32
2024/01/01 14:16:30;;;;;;;13.10;10.70;;;;;;;;;;81065;275;3028671;-32
2024/01/01 14:19:07;;;;;;;13.40;10.30;;;;;;;;;;82003;278;3027796;-32
2024/01/01 14:21:48;;;;;;;13.40;10.80;;;;;;;;;;81037;275;3031088;-31
2024/01/01 14:24:24;;;;;;;15.10;11.60;;;;;;;;;;81077;283;3031205;-31
2024/01/01 14:27:06;;;;;;;17.40;12.60;;;;;;;;;;81043;283;3028133;-31
2024/01/01 14:29:46;;;;;;;16.40;12.70;;;;;;;;;;81030;271;3033452;-31
2024/01/01 14:32:26;;;;;;;16.50;11.90;;;;;;;;;;81090;283;3031191;-32
2024/01/01 14:35:04;;;;;;;16.30;12.10;;;;;;;;;;81083;283;3031755;-32
2024/01/01 14:37:41;;;;;;;15.30;12.30;;;;;;;;;;81730;283;3028671;-31
2024/01/01 14:40:21;;;;;;;14.60;12.10;;;;;;;;;;81065;270;3033772;-31
2024/01/01 14:43:03;;;;;;;18.30;13.10;;;;;;;;;;81086;283;3031041;-31
2024/01/01 14:45:42;;;;;;;17.70;12.60;;;;;;;;;;81037;275;3031302;-31
2024/01/01 14:48:20;;;;;;;16.90;12.60;;;;;;;;;;81476;275;3028454;-32
2024/01/01 14:50:59;;;;;;;17.50;12.60;;;;;;;;;;82501;278;3027195;-32
2024/01/01 14:53:38;;;;;;;17.70;12.00;;;;;;;;;;81092;271;3030576;-32
2024/01/01 14:56:16;;;;;;;16.20;12.60;;;;;;;;;;81419;283;3031919;-31
2024/01/01 14:58:56;;;;;;;16.30;12.20;;;;;;;;;;81014;283;3028414;-31
2024/01/01 15:01:33;;;;;;;17.30;11.90;;;;;;;;;;81088;271;3027839;-32
2024/01/01 15:04:09;;;;;;;16.10;11.70;;;;;;;;;;81082;271;3031128;-31
2024/01/01 15:06:46;;;;;;;15.90;12.30;;;;;;;;;;81074;275;3031535;-31
2024/01/01 15:09:23;;;;;;;15.80;12.20;;;;;;;;;;81035;271;3028477;-31
2024/01/01 15:12:00;;;;;;;17.20;12.10;;;;;;;;;;81083;270;3028014;-31
2024/01/01 15:14:42;;;;;;;14.10;11.30;;;;;;;;;;81050;279;3030770;-31